Time;durP1;ratioP1;P1;durP2;ratioP2;P2;SDS_P1;SDS_P2;PMS_P1;PMS_P2;Temp;Humidity;BMP_temperature;BMP_pressure;BME280_temperature;BME280_humidity;BME280_pressure;Samples;Min_cycle;Max_cycle;Signal;HPM_P1;HPM_P2
2022/10/28 00:02:14;;;;;;;;;;;;;;;;;;5029689;28;19921;-36
2022/10/28 00:04:39;;;;;;;;;;;;;;;;;;5029521;28;20341;-35
2022/10/28 00:07:04;;;;;;;;;;;;;;;;;;5029629;28;19913;-36
2022/10/28 00:09:30;;;;;;;;;;;;;;;;;;5028300;28;20474;-36
2022/10/28 00:11:55;;;;;;;;;;;;;;;;;;5029331;28;19917;-36
2022/10/28 00:14:20;;;;;;;;;;;;;;;;;;5027698;28;20203;-36
2022/10/28 00:16:45;;;;;;;;;;;;;;;;;;5028925;28;19996;-36
2022/10/28 00:19:10;;;;;;;;;;;;;;;;;;5028444;28;20372;-35
2022/10/28 00:21:35;;;;;;;;;;;;;;;;;;5029022;28;19921;-36
2022/10/28 00:24:00;;;;;;;;;;;;;;;;;;5029390;28;19913;-35
2022/10/28 00:26:25;;;;;;;;;;;;;;;;;;5029699;28;19917;-35
2022/10/28 00:28:51;;;;;;;;;;;;;;;;;;5029113;28;19917;-36
2022/10/28 00:31:16;;;;;;;;;;;;;;;;;;5027644;28;19980;-36
2022/10/28 00:33:41;;;;;;;;;;;;;;;;;;5029037;28;19913;-36
2022/10/28 00:36:06;;;;;;;;;;;;;;;;;;5028253;28;20363;-36
2022/10/28 00:38:31;;;;;;;;;;;;;;;;;;5029953;28;19913;-36
2022/10/28 00:40:56;;;;;;;;;;;;;;;;;;5029366;28;19912;-36
2022/10/28 00:43:22;;;;;;;;;;;;;;;;;;5028835;28;20211;-36
2022/10/28 00:45:47;;;;;;;;;;;;;;;;;;5029153;28;20380;-36
2022/10/28 00:48:12;;;;;;;;;;;;;;;;;;5028739;28;19917;-35
2022/10/28 00:50:37;;;;;;;;;;;;;;;;;;5027735;28;19917;-36
2022/10/28 00:53:02;;;;;;;;;;;;;;;;;;5028221;28;20012;-34
2022/10/28 00:55:27;;;;;;;;;;;;;;;;;;5027168;28;19979;-33
2022/10/28 00:57:55;;;;;;;;;;;;;;;;;;5029097;28;19917;-34
2022/10/28 01:00:20;;;;;;;;;;;;;;;;;;5029082;28;19916;-33
2022/10/28 01:02:45;;;;;;;;;;;;;;;;;;5028668;28;19917;-34
2022/10/28 01:05:11;;;;;;;;;;;;;;;;;;5028611;28;19917;-33
2022/10/28 01:07:36;;;;;;;;;;;;;;;;;;5028084;28;19921;-34
2022/10/28 01:10:01;;;;;;;;;;;;;;;;;;5028377;28;20351;-33
2022/10/28 01:12:26;;;;;;;;;;;;;;;;;;5028696;28;19960;-34
2022/10/28 01:14:51;;;;;;;;;;;;;;;;;;5027902;28;19925;-33
2022/10/28 01:17:17;;;;;;;;;;;;;;;;;;5026710;28;20329;-33
2022/10/28 01:19:42;;;;;;;;;;;;;;;;;;5028733;28;19921;-33
2022/10/28 01:22:07;;;;;;;;;;;;;;;;;;5028709;28;19938;-33
2022/10/28 01:24:32;;;;;;;;;;;;;;;;;;5027479;28;19923;-33
2022/10/28 01:26:57;;;;;;;;;;;;;;;;;;5028234;28;19998;-33
2022/10/28 01:29:22;;;;;;;;;;;;;;;;;;5026724;28;19920;-34
2022/10/28 01:31:48;;;;;;;;;;;;;;;;;;5028258;28;20393;-34
2022/10/28 01:34:13;;;;;;;;;;;;;;;;;;5027229;28;19920;-34
2022/10/28 01:36:38;;;;;;;;;;;;;;;;;;5027931;28;20003;-34
2022/10/28 01:39:03;;;;;;;;;;;;;;;;;;5028176;28;19917;-33
2022/10/28 01:41:29;;;;;;;;;;;;;;;;;;5027349;28;19913;-33
2022/10/28 01:43:54;;;;;;;;;;;;;;;;;;5027938;28;19988;-33
2022/10/28 01:46:19;;;;;;;;;;;;;;;;;;5027450;28;19917;-34
2022/10/28 01:48:44;;;;;;;;;;;;;;;;;;5027751;28;19921;-33
2022/10/28 01:51:09;;;;;;;;;;;;;;;;;;5028165;28;19944;-33
2022/10/28 01:53:34;;;;;;;;;;;;;;;;;;5027431;28;19917;-33
2022/10/28 01:56:00;;;;;;;;;;;;;;;;;;5027974;28;20004;-34
2022/10/28 01:58:25;;;;;;;;;;;;;;;;;;5028293;28;20171;-33
2022/10/28 02:00:50;;;;;;;;;;;;;;;;;;5027083;28;19913;-34
2022/10/28 02:03:15;;;;;;;;;;;;;;;;;;5027510;28;19987;-33
2022/10/28 02:05:40;;;;;;;;;;;;;;;;;;5027194;28;19971;-33
2022/10/28 02:08:05;;;;;;;;;;;;;;;;;;5025917;28;19983;-33
2022/10/28 02:10:32;;;;;;;;;;;;;;;;;;5028407;28;19920;-33
2022/10/28 02:12:58;;;;;;;;;;;;;;;;;;5028185;28;20274;-33
2022/10/28 02:15:23;;;;;;;;;;;;;;;;;;5026787;28;20116;-33
2022/10/28 02:17:48;;;;;;;;;;;;;;;;;;5028016;28;19919;-33
2022/10/28 02:20:13;;;;;;;;;;;;;;;;;;5027052;28;19921;-33
2022/10/28 02:22:38;;;;;;;;;;;;;;;;;;5027589;28;19913;-33
2022/10/28 02:25:03;;;;;;;;;;;;;;;;;;5028352;28;19967;-33
2022/10/28 02:27:29;;;;;;;;;;;;;;;;;;5026220;28;19963;-33
2022/10/28 02:29:54;;;;;;;;;;;;;;;;;;5027754;28;19924;-33
2022/10/28 02:32:19;;;;;;;;;;;;;;;;;;5027249;28;20357;-33
2022/10/28 02:34:44;;;;;;;;;;;;;;;;;;5027644;28;19921;-33
2022/10/28 02:37:09;;;;;;;;;;;;;;;;;;5027663;28;20385;-33
2022/10/28 02:39:34;;;;;;;;;;;;;;;;;;5028286;28;19921;-33
2022/10/28 02:41:59;;;;;;;;;;;;;;;;;;5027108;28;19917;-34
2022/10/28 02:44:25;;;;;;;;;;;;;;;;;;5028736;28;19921;-33
2022/10/28 02:46:50;;;;;;;;;;;;;;;;;;5027655;28;19913;-33
2022/10/28 02:49:15;;;;;;;;;;;;;;;;;;5027659;28;19920;-33
2022/10/28 02:51:40;;;;;;;;;;;;;;;;;;5027427;28;20021;-33
2022/10/28 02:54:05;;;;;;;;;;;;;;;;;;5028794;28;19949;-33
2022/10/28 02:56:30;;;;;;;;;;;;;;;;;;5030438;28;20287;-33
2022/10/28 02:58:55;;;;;;;;;;;;;;;;;;5030193;28;19920;-33
2022/10/28 03:01:21;;;;;;;;;;;;;;;;;;5029212;28;19917;-34
2022/10/28 03:03:46;;;;;;;;;;;;;;;;;;5031403;28;19913;-33
2022/10/28 03:06:11;;;;;;;;;;;;;;;;;;5029357;28;19913;-33
2022/10/28 03:08:36;;;;;;;;;;;;;;;;;;5030042;28;19928;-33
2022/10/28 03:11:01;;;;;;;;;;;;;;;;;;5030850;28;20536;-33
2022/10/28 03:13:26;;;;;;;;;;;;;;;;;;5029138;28;19925;-33
2022/10/28 03:15:52;;;;;;;;;;;;;;;;;;5029225;28;19925;-33
2022/10/28 03:18:17;;;;;;;;;;;;;;;;;;5029635;28;19916;-33
2022/10/28 03:20:42;;;;;;;;;;;;;;;;;;5029308;28;19923;-33
2022/10/28 03:23:07;;;;;;;;;;;;;;;;;;5029167;28;20532;-33
2022/10/28 03:25:32;;;;;;;;;;;;;;;;;;5031430;28;19917;-33
2022/10/28 03:27:57;;;;;;;;;;;;;;;;;;5031140;28;19952;-33
2022/10/28 03:30:22;;;;;;;;;;;;;;;;;;5029986;28;20302;-33
2022/10/28 03:32:48;;;;;;;;;;;;;;;;;;5028698;28;19920;-33
2022/10/28 03:35:13;;;;;;;;;;;;;;;;;;5029930;28;20424;-33
2022/10/28 03:37:38;;;;;;;;;;;;;;;;;;5029614;28;19917;-33
2022/10/28 03:40:06;;;;;;;;;;;;;;;;;;5029624;28;20453;-33
2022/10/28 03:42:32;;;;;;;;;;;;;;;;;;5030495;28;19917;-33
2022/10/28 03:44:58;;;;;;;;;;;;;;;;;;5029186;28;19912;-33
2022/10/28 03:47:23;;;;;;;;;;;;;;;;;;5028783;28;19909;-33
2022/10/28 03:49:48;;;;;;;;;;;;;;;;;;5027702;28;19917;-33
2022/10/28 03:52:13;;;;;;;;;;;;;;;;;;5029735;28;19971;-33
2022/10/28 03:54:38;;;;;;;;;;;;;;;;;;5028689;28;19981;-33
2022/10/28 03:57:03;;;;;;;;;;;;;;;;;;5030794;28;20270;-33
2022/10/28 03:59:29;;;;;;;;;;;;;;;;;;5030264;28;20290;-33
2022/10/28 04:01:54;;;;;;;;;;;;;;;;;;5028499;28;19921;-33
2022/10/28 04:04:19;;;;;;;;;;;;;;;;;;5027905;28;19921;-33
2022/10/28 04:06:44;;;;;;;;;;;;;;;;;;5029395;28;19953;-33
2022/10/28 04:09:09;;;;;;;;;;;;;;;;;;5031568;28;19913;-33
2022/10/28 04:11:35;;;;;;;;;;;;;;;;;;5029030;28;20581;-33
2022/10/28 04:14:00;;;;;;;;;;;;;;;;;;5029533;28;19913;-33
2022/10/28 04:16:25;;;;;;;;;;;;;;;;;;5029198;28;19921;-33
2022/10/28 04:18:50;;;;;;;;;;;;;;;;;;5029316;28;19913;-34
2022/10/28 04:21:15;;;;;;;;;;;;;;;;;;5028711;28;20398;-33
2022/10/28 04:23:40;;;;;;;;;;;;;;;;;;5028613;28;20259;-33
2022/10/28 04:26:06;;;;;;;;;;;;;;;;;;5027779;28;19913;-33
2022/10/28 04:28:31;;;;;;;;;;;;;;;;;;5028622;28;19917;-34
2022/10/28 04:30:56;;;;;;;;;;;;;;;;;;5029274;28;19916;-33
2022/10/28 04:33:22;;;;;;;;;;;;;;;;;;5027893;28;20003;-33
2022/10/28 04:35:47;;;;;;;;;;;;;;;;;;5028583;28;19924;-33
2022/10/28 04:38:13;;;;;;;;;;;;;;;;;;5028885;28;20425;-33
2022/10/28 04:40:38;;;;;;;;;;;;;;;;;;5028379;28;19925;-34
2022/10/28 04:43:03;;;;;;;;;;;;;;;;;;5029216;28;19971;-33
2022/10/28 04:45:28;;;;;;;;;;;;;;;;;;5028301;28;20413;-33
2022/10/28 04:47:53;;;;;;;;;;;;;;;;;;5028803;28;19928;-33
2022/10/28 04:50:18;;;;;;;;;;;;;;;;;;5027993;28;21808;-33
2022/10/28 04:52:43;;;;;;;;;;;;;;;;;;5028603;28;19920;-33
2022/10/28 04:55:09;;;;;;;;;;;;;;;;;;5027522;28;19923;-33
2022/10/28 04:57:34;;;;;;;;;;;;;;;;;;5029264;28;20287;-33
2022/10/28 04:59:59;;;;;;;;;;;;;;;;;;5029038;28;20374;-33
2022/10/28 05:02:24;;;;;;;;;;;;;;;;;;5028248;28;19971;-33
2022/10/28 05:04:49;;;;;;;;;;;;;;;;;;5027755;28;19917;-33
2022/10/28 05:07:14;;;;;;;;;;;;;;;;;;5029178;28;20286;-33
2022/10/28 05:09:39;;;;;;;;;;;;;;;;;;5027267;28;19924;-33
2022/10/28 05:12:05;;;;;;;;;;;;;;;;;;5029542;28;19920;-33
2022/10/28 05:14:31;;;;;;;;;;;;;;;;;;5027254;28;19924;-33
2022/10/28 05:16:56;;;;;;;;;;;;;;;;;;5028040;28;19917;-33
2022/10/28 05:19:21;;;;;;;;;;;;;;;;;;5027878;28;20552;-33
2022/10/28 05:21:46;;;;;;;;;;;;;;;;;;5027998;28;19920;-33
2022/10/28 05:24:11;;;;;;;;;;;;;;;;;;5027383;28;19913;-33
2022/10/28 05:26:36;;;;;;;;;;;;;;;;;;5027585;28;19928;-33
2022/10/28 05:29:01;;;;;;;;;;;;;;;;;;5028306;28;20321;-33
2022/10/28 05:31:27;;;;;;;;;;;;;;;;;;5023631;28;19913;-33
2022/10/28 05:33:52;;;;;;;;;;;;;;;;;;5027218;28;20207;-33
2022/10/28 05:36:17;;;;;;;;;;;;;;;;;;5026677;28;19948;-33
2022/10/28 05:38:44;;;;;;;;;;;;;;;;;;5026835;28;20194;-33
2022/10/28 05:41:09;;;;;;;;;;;;;;;;;;5026908;28;19939;-33
2022/10/28 05:43:34;;;;;;;;;;;;;;;;;;5026386;28;20022;-33
2022/10/28 05:46:01;;;;;;;;;;;;;;;;;;5027094;28;19913;-33
2022/10/28 05:48:26;;;;;;;;;;;;;;;;;;5022918;28;19979;-33
2022/10/28 05:50:51;;;;;;;;;;;;;;;;;;5027010;28;20370;-33
2022/10/28 05:53:16;;;;;;;;;;;;;;;;;;5026931;28;20286;-33
2022/10/28 05:55:42;;;;;;;;;;;;;;;;;;5022159;28;19975;-33
2022/10/28 05:58:08;;;;;;;;;;;;;;;;;;5020309;28;19996;-33
2022/10/28 06:00:34;;;;;;;;;;;;;;;;;;5024843;28;20386;-33
2022/10/28 06:02:59;;;;;;;;;;;;;;;;;;5026328;28;19924;-35
2022/10/28 06:05:25;;;;;;;;;;;;;;;;;;5025535;28;20287;-35
2022/10/28 06:07:50;;;;;;;;;;;;;;;;;;5029703;28;19917;-35
2022/10/28 06:10:16;;;;;;;;;;;;;;;;;;5028757;28;20278;-35
2022/10/28 06:12:41;;;;;;;;;;;;;;;;;;5025758;28;19921;-35
2022/10/28 06:15:06;;;;;;;;;;;;;;;;;;5029083;28;19970;-35
2022/10/28 06:17:31;;;;;;;;;;;;;;;;;;5026675;28;20375;-35
2022/10/28 06:19:56;;;;;;;;;;;;;;;;;;5023534;28;20089;-35
2022/10/28 06:22:22;;;;;;;;;;;;;;;;;;5029736;28;20268;-35
2022/10/28 06:24:47;;;;;;;;;;;;;;;;;;5026590;28;19960;-35
2022/10/28 06:27:12;;;;;;;;;;;;;;;;;;5026206;28;19928;-35
2022/10/28 06:29:37;;;;;;;;;;;;;;;;;;5029979;28;20144;-35
2022/10/28 06:32:02;;;;;;;;;;;;;;;;;;5032046;28;19940;-35
2022/10/28 06:34:27;;;;;;;;;;;;;;;;;;5032515;28;19923;-35
2022/10/28 06:36:53;;;;;;;;;;;;;;;;;;5034161;28;20298;-36
2022/10/28 06:39:18;;;;;;;;;;;;;;;;;;5030423;28;20286;-35
2022/10/28 06:41:43;;;;;;;;;;;;;;;;;;5034070;28;20433;-35
2022/10/28 06:44:08;;;;;;;;;;;;;;;;;;5034757;28;19920;-35
2022/10/28 06:46:34;;;;;;;;;;;;;;;;;;5032624;28;19919;-34
2022/10/28 06:49:01;;;;;;;;;;;;;;;;;;5030125;28;20114;-35
2022/10/28 06:51:27;;;;;;;;;;;;;;;;;;5027023;28;19997;-35
2022/10/28 06:53:52;;;;;;;;;;;;;;;;;;5030113;28;19917;-35
2022/10/28 06:56:17;;;;;;;;;;;;;;;;;;5028166;28;20263;-35
2022/10/28 06:58:42;;;;;;;;;;;;;;;;;;5029569;28;19925;-35
2022/10/28 07:01:10;;;;;;;;;;;;;;;;;;5033840;28;20619;-35
2022/10/28 07:03:35;;;;;;;;;;;;;;;;;;5033339;28;19920;-35
2022/10/28 07:06:00;;;;;;;;;;;;;;;;;;5035032;28;19909;-35
2022/10/28 07:08:25;;;;;;;;;;;;;;;;;;5030730;28;20436;-35
2022/10/28 07:10:50;;;;;;;;;;;;;;;;;;5031208;28;19913;-35
2022/10/28 07:13:15;;;;;;;;;;;;;;;;;;5027875;28;19976;-35
2022/10/28 07:15:40;;;;;;;;;;;;;;;;;;5031699;28;19917;-35
2022/10/28 07:18:06;;;;;;;;;;;;;;;;;;5031449;28;19913;-36
2022/10/28 07:20:31;;;;;;;;;;;;;;;;;;5027737;28;20786;-35
2022/10/28 07:22:56;;;;;;;;;;;;;;;;;;5029886;28;19915;-35
2022/10/28 07:25:22;;;;;;;;;;;;;;;;;;5027374;28;19917;-35
2022/10/28 07:27:47;;;;;;;;;;;;;;;;;;5028476;28;20382;-35
2022/10/28 07:30:12;;;;;;;;;;;;;;;;;;5027163;28;19921;-36
2022/10/28 07:32:37;;;;;;;;;;;;;;;;;;5028262;28;20084;-35
2022/10/28 07:35:02;;;;;;;;;;;;;;;;;;5029041;28;19925;-35
2022/10/28 07:37:27;;;;;;;;;;;;;;;;;;5029909;28;19955;-35
2022/10/28 07:39:52;;;;;;;;;;;;;;;;;;5029318;28;19925;-35
2022/10/28 07:42:18;;;;;;;;;;;;;;;;;;5026694;28;19935;-35
2022/10/28 07:44:43;;;;;;;;;;;;;;;;;;5026748;28;20382;-35
2022/10/28 07:47:08;;;;;;;;;;;;;;;;;;5026167;28;19947;-36
2022/10/28 07:49:33;;;;;;;;;;;;;;;;;;5027928;28;19996;-35
2022/10/28 07:51:58;;;;;;;;;;;;;;;;;;5027130;28;20355;-36
2022/10/28 07:54:23;;;;;;;;;;;;;;;;;;5026740;28;19909;-35
2022/10/28 07:56:48;;;;;;;;;;;;;;;;;;5028317;28;19917;-36
2022/10/28 07:59:14;;;;;;;;;;;;;;;;;;5025725;28;19968;-35
2022/10/28 08:01:39;;;;;;;;;;;;;;;;;;5025300;28;20346;-35
2022/10/28 08:04:04;;;;;;;;;;;;;;;;;;5027634;28;20275;-36
2022/10/28 08:06:29;;;;;;;;;;;;;;;;;;5030939;28;19956;-35
2022/10/28 08:08:54;;;;;;;;;;;;;;;;;;5027018;28;19913;-36
2022/10/28 08:11:21;;;;;;;;;;;;;;;;;;5027757;28;20199;-35
2022/10/28 08:13:46;;;;;;;;;;;;;;;;;;5028636;28;19913;-35
2022/10/28 08:16:11;;;;;;;;;;;;;;;;;;5028152;28;19975;-35
2022/10/28 08:18:37;;;;;;;;;;;;;;;;;;5026351;28;19917;-35
2022/10/28 08:21:02;;;;;;;;;;;;;;;;;;5029668;28;19940;-35
2022/10/28 08:23:27;;;;;;;;;;;;;;;;;;5029075;28;19913;-35
2022/10/28 08:25:52;;;;;;;;;;;;;;;;;;5025767;28;19922;-35
2022/10/28 08:28:18;;;;;;;;;;;;;;;;;;5023808;28;20012;-35
2022/10/28 08:30:43;;;;;;;;;;;;;;;;;;5029353;28;20338;-36
2022/10/28 08:33:08;;;;;;;;;;;;;;;;;;5029069;28;20009;-36
2022/10/28 08:35:34;;;;;;;;;;;;;;;;;;5027795;28;19921;-35
2022/10/28 08:37:59;;;;;;;;;;;;;;;;;;5030227;28;19940;-35
2022/10/28 08:40:25;;;;;;;;;;;;;;;;;;5026902;28;19921;-36
2022/10/28 08:42:50;;;;;;;;;;;;;;;;;;5030253;28;19964;-35
2022/10/28 08:45:15;;;;;;;;;;;;;;;;;;5026656;28;20435;-35
2022/10/28 08:47:40;;;;;;;;;;;;;;;;;;5027279;28;19917;-35
2022/10/28 08:50:05;;;;;;;;;;;;;;;;;;5021528;28;20359;-36
2022/10/28 08:52:31;;;;;;;;;;;;;;;;;;5024824;28;19994;-35
2022/10/28 08:54:56;;;;;;;;;;;;;;;;;;5027948;28;20390;-35
2022/10/28 08:57:21;;;;;;;;;;;;;;;;;;5026347;28;19913;-36
2022/10/28 08:59:46;;;;;;;;;;;;;;;;;;5027053;28;19917;-36
2022/10/28 09:02:11;;;;;;;;;;;;;;;;;;5029086;28;19986;-35
2022/10/28 09:04:37;;;;;;;;;;;;;;;;;;5019749;28;20298;-35
2022/10/28 09:07:02;;;;;;;;;;;;;;;;;;5032498;28;20382;-35
2022/10/28 09:09:27;;;;;;;;;;;;;;;;;;5022425;28;19959;-36
2022/10/28 09:11:52;;;;;;;;;;;;;;;;;;5025787;28;20306;-35
2022/10/28 09:14:17;;;;;;;;;;;;;;;;;;5027449;28;19913;-35
2022/10/28 09:16:42;;;;;;;;;;;;;;;;;;5027087;28;20012;-35
2022/10/28 09:19:08;;;;;;;;;;;;;;;;;;5029455;28;19924;-35
2022/10/28 09:21:33;;;;;;;;;;;;;;;;;;5026709;28;19921;-36
2022/10/28 09:23:58;;;;;;;;;;;;;;;;;;5028509;28;19913;-35
2022/10/28 09:26:23;;;;;;;;;;;;;;;;;;5026519;28;19913;-36
2022/10/28 09:28:49;;;;;;;;;;;;;;;;;;5027037;28;20003;-35
2022/10/28 09:31:14;;;;;;;;;;;;;;;;;;5024809;28;19921;-35
2022/10/28 09:33:39;;;;;;;;;;;;;;;;;;5025314;28;19917;-35
2022/10/28 09:36:04;;;;;;;;;;;;;;;;;;5026963;28;19920;-35
2022/10/28 09:38:30;;;;;;;;;;;;;;;;;;5023557;28;20375;-36
2022/10/28 09:40:55;;;;;;;;;;;;;;;;;;5033989;28;19920;-35
2022/10/28 09:43:20;;;;;;;;;;;;;;;;;;5028103;28;20393;-35
2022/10/28 09:45:45;;;;;;;;;;;;;;;;;;5025971;28;19931;-35
2022/10/28 09:48:11;;;;;;;;;;;;;;;;;;5026339;28;20373;-36
2022/10/28 09:50:36;;;;;;;;;;;;;;;;;;5031977;28;19913;-35
2022/10/28 09:53:01;;;;;;;;;;;;;;;;;;5024680;28;19953;-36
2022/10/28 09:55:27;;;;;;;;;;;;;;;;;;5026967;28;19928;-35
2022/10/28 09:57:52;;;;;;;;;;;;;;;;;;5032434;28;19949;-36
2022/10/28 10:00:18;;;;;;;;;;;;;;;;;;5032116;28;19964;-36
2022/10/28 10:02:43;;;;;;;;;;;;;;;;;;5026048;28;19933;-35
2022/10/28 10:05:08;;;;;;;;;;;;;;;;;;5023893;28;19913;-36
2022/10/28 10:07:33;;;;;;;;;;;;;;;;;;5025234;28;19917;-35
2022/10/28 10:09:58;;;;;;;;;;;;;;;;;;5026662;28;19913;-35
2022/10/28 10:12:23;;;;;;;;;;;;;;;;;;5026257;28;19913;-36
2022/10/28 10:14:49;;;;;;;;;;;;;;;;;;5026388;28;19921;-36
2022/10/28 10:17:14;;;;;;;;;;;;;;;;;;5025657;28;19917;-36
2022/10/28 10:19:39;;;;;;;;;;;;;;;;;;5027449;28;20329;-36
2022/10/28 10:22:05;;;;;;;;;;;;;;;;;;5026269;28;19959;-36
2022/10/28 10:24:30;;;;;;;;;;;;;;;;;;5026158;28;20378;-36
2022/10/28 10:26:55;;;;;;;;;;;;;;;;;;5027108;28;20322;-36
2022/10/28 10:29:20;;;;;;;;;;;;;;;;;;5025219;28;20112;-36
2022/10/28 10:31:45;;;;;;;;;;;;;;;;;;5024910;28;19954;-36
2022/10/28 10:34:10;;;;;;;;;;;;;;;;;;5026189;28;19967;-36
2022/10/28 10:36:36;;;;;;;;;;;;;;;;;;5024877;28;19960;-36
2022/10/28 10:39:01;;;;;;;;;;;;;;;;;;5022985;28;20371;-36
2022/10/28 10:41:26;;;;;;;;;;;;;;;;;;5025959;28;19947;-36
2022/10/28 10:43:51;;;;;;;;;;;;;;;;;;5026486;28;19921;-36
2022/10/28 10:46:16;;;;;;;;;;;;;;;;;;5027423;28;20359;-36
2022/10/28 10:48:41;;;;;;;;;;;;;;;;;;5025567;28;20003;-37
2022/10/28 10:51:07;;;;;;;;;;;;;;;;;;5025105;28;19963;-36
2022/10/28 10:53:32;;;;;;;;;;;;;;;;;;5025487;28;19918;-36
2022/10/28 10:55:57;;;;;;;;;;;;;;;;;;5025135;28;19990;-36
2022/10/28 10:58:22;;;;;;;;;;;;;;;;;;5025579;28;20376;-36
2022/10/28 11:00:47;;;;;;;;;;;;;;;;;;5027323;28;20260;-37
2022/10/28 11:03:12;;;;;;;;;;;;;;;;;;5024521;28;19921;-36
2022/10/28 11:05:38;;;;;;;;;;;;;;;;;;5023212;28;20290;-37
2022/10/28 11:08:05;;;;;;;;;;;;;;;;;;5024314;28;19921;-37
2022/10/28 11:10:30;;;;;;;;;;;;;;;;;;5026921;28;20362;-36
2022/10/28 11:12:55;;;;;;;;;;;;;;;;;;5022829;28;19920;-37
2022/10/28 11:15:20;;;;;;;;;;;;;;;;;;5025318;28;19936;-36
2022/10/28 11:17:46;;;;;;;;;;;;;;;;;;5029893;28;19913;-36
2022/10/28 11:20:11;;;;;;;;;;;;;;;;;;5029962;28;20309;-36
2022/10/28 11:22:36;;;;;;;;;;;;;;;;;;5027861;28;20429;-36
2022/10/28 11:25:01;;;;;;;;;;;;;;;;;;5027341;28;19964;-36
2022/10/28 11:27:26;;;;;;;;;;;;;;;;;;5028387;28;20011;-36
2022/10/28 11:29:52;;;;;;;;;;;;;;;;;;5024374;28;19913;-36
2022/10/28 11:32:17;;;;;;;;;;;;;;;;;;5027689;28;20717;-36
2022/10/28 11:34:42;;;;;;;;;;;;;;;;;;5027200;28;19917;-36
2022/10/28 11:37:08;;;;;;;;;;;;;;;;;;5026286;28;20367;-36
2022/10/28 11:39:35;;;;;;;;;;;;;;;;;;5030427;28;19917;-36
2022/10/28 11:42:00;;;;;;;;;;;;;;;;;;5026173;28;19917;-36
2022/10/28 11:44:25;;;;;;;;;;;;;;;;;;5028133;28;20349;-36
2022/10/28 11:46:51;;;;;;;;;;;;;;;;;;5028773;28;19964;-36
2022/10/28 11:49:16;;;;;;;;;;;;;;;;;;5027191;28;20164;-36
2022/10/28 11:51:41;;;;;;;;;;;;;;;;;;5026649;28;20016;-37
2022/10/28 11:54:06;;;;;;;;;;;;;;;;;;5027486;28;19917;-36
2022/10/28 11:56:31;;;;;;;;;;;;;;;;;;5027272;28;20464;-37
2022/10/28 11:58:56;;;;;;;;;;;;;;;;;;5023440;28;19967;-36
2022/10/28 12:04:00;;;;;;;;;;;;;;;;;;5004682;28;19929;-34
2022/10/28 12:06:25;;;;;;;;;;;;;;;;;;5008234;28;19926;-34
2022/10/28 12:08:50;;;;;;;;;;;;;;;;;;5003380;28;19937;-34
2022/10/28 12:11:15;;;;;;;;;;;;;;;;;;5005772;28;19959;-35
2022/10/28 12:13:40;;;;;;;;;;;;;;;;;;5007962;28;19921;-35
2022/10/28 12:16:05;;;;;;;;;;;;;;;;;;5007442;28;19955;-34
2022/10/28 12:18:30;;;;;;;;;;;;;;;;;;5008027;28;19983;-35
2022/10/28 12:20:56;;;;;;;;;;;;;;;;;;5007652;28;20347;-36
2022/10/28 12:23:21;;;;;;;;;;;;;;;;;;5006526;28;20414;-36
2022/10/28 12:25:46;;;;;;;;;;;;;;;;;;5001378;28;19920;-36
2022/10/28 12:28:11;;;;;;;;;;;;;;;;;;5006899;28;19917;-36
2022/10/28 12:30:36;;;;;;;;;;;;;;;;;;5007923;28;19917;-35
2022/10/28 12:33:01;;;;;;;;;;;;;;;;;;5008768;28;20389;-36
2022/10/28 12:35:27;;;;;;;;;;;;;;;;;;5008605;28;20075;-36
2022/10/28 12:37:52;;;;;;;;;;;;;;;;;;5008394;28;19928;-35
2022/10/28 12:40:17;;;;;;;;;;;;;;;;;;5008583;28;19975;-35
2022/10/28 12:42:42;;;;;;;;;;;;;;;;;;5006038;28;19940;-35
2022/10/28 12:45:07;;;;;;;;;;;;;;;;;;5007863;28;19925;-35
2022/10/28 12:47:33;;;;;;;;;;;;;;;;;;5008149;28;20075;-35
2022/10/28 12:49:58;;;;;;;;;;;;;;;;;;5008581;28;19925;-35
2022/10/28 12:52:23;;;;;;;;;;;;;;;;;;5002765;28;19917;-35
2022/10/28 12:54:48;;;;;;;;;;;;;;;;;;5001652;28;19918;-35
2022/10/28 12:57:13;;;;;;;;;;;;;;;;;;5005210;28;20406;-35
2022/10/28 12:59:39;;;;;;;;;;;;;;;;;;5005034;28;19978;-35
2022/10/28 13:02:04;;;;;;;;;;;;;;;;;;5006676;28;19922;-35
2022/10/28 13:04:29;;;;;;;;;;;;;;;;;;5006540;28;19929;-35
2022/10/28 13:06:54;;;;;;;;;;;;;;;;;;5007698;28;20418;-36
2022/10/28 13:09:19;;;;;;;;;;;;;;;;;;5003453;28;19957;-36
2022/10/28 13:11:44;;;;;;;;;;;;;;;;;;5005432;28;20124;-36
2022/10/28 13:14:10;;;;;;;;;;;;;;;;;;5006434;28;19917;-36
2022/10/28 13:16:35;;;;;;;;;;;;;;;;;;5006815;28;19921;-36
2022/10/28 13:19:00;;;;;;;;;;;;;;;;;;5008185;28;19921;-36
2022/10/28 13:21:25;;;;;;;;;;;;;;;;;;5007255;28;19949;-36
2022/10/28 13:23:50;;;;;;;;;;;;;;;;;;5006067;28;19971;-36
2022/10/28 13:26:15;;;;;;;;;;;;;;;;;;5006565;28;20022;-36
2022/10/28 13:28:41;;;;;;;;;;;;;;;;;;5000795;28;20016;-36
2022/10/28 13:31:06;;;;;;;;;;;;;;;;;;5005685;28;20136;-36
2022/10/28 13:33:31;;;;;;;;;;;;;;;;;;5007239;28;19940;-36
2022/10/28 13:35:56;;;;;;;;;;;;;;;;;;5006899;28;19928;-36
2022/10/28 13:38:21;;;;;;;;;;;;;;;;;;5006876;28;19961;-36
2022/10/28 13:40:47;;;;;;;;;;;;;;;;;;5007101;28;20275;-36
2022/10/28 13:43:12;;;;;;;;;;;;;;;;;;5005273;28;19917;-36
2022/10/28 13:45:37;;;;;;;;;;;;;;;;;;5006955;28;19917;-36
2022/10/28 13:48:02;;;;;;;;;;;;;;;;;;5005179;28;19917;-36
2022/10/28 13:50:27;;;;;;;;;;;;;;;;;;5004147;28;19961;-36
2022/10/28 13:52:52;;;;;;;;;;;;;;;;;;5007376;28;20283;-36
2022/10/28 13:55:17;;;;;;;;;;;;;;;;;;5005797;28;19922;-36
2022/10/28 13:57:43;;;;;;;;;;;;;;;;;;5006258;28;19917;-36
2022/10/28 14:00:08;;;;;;;;;;;;;;;;;;5004442;28;20290;-36
2022/10/28 14:02:33;;;;;;;;;;;;;;;;;;5005825;28;20330;-36
2022/10/28 14:04:58;;;;;;;;;;;;;;;;;;5005282;28;19913;-36
2022/10/28 14:07:25;;;;;;;;;;;;;;;;;;5006508;28;20157;-36
2022/10/28 14:09:50;;;;;;;;;;;;;;;;;;5005346;28;19944;-36
2022/10/28 14:12:16;;;;;;;;;;;;;;;;;;5006176;28;19928;-36
2022/10/28 14:14:41;;;;;;;;;;;;;;;;;;5006285;28;19928;-36
2022/10/28 14:17:06;;;;;;;;;;;;;;;;;;5004893;28;20306;-36
2022/10/28 14:19:32;;;;;;;;;;;;;;;;;;5005457;28;20160;-36
2022/10/28 14:21:57;;;;;;;;;;;;;;;;;;5005295;28;20016;-36
2022/10/28 14:24:22;;;;;;;;;;;;;;;;;;5005970;28;19921;-36
2022/10/28 14:26:47;;;;;;;;;;;;;;;;;;5005702;28;20367;-36
2022/10/28 14:29:12;;;;;;;;;;;;;;;;;;5005403;28;19921;-36
2022/10/28 14:31:37;;;;;;;;;;;;;;;;;;5005945;28;20000;-36
2022/10/28 14:34:02;;;;;;;;;;;;;;;;;;5004719;28;20291;-36
2022/10/28 14:36:28;;;;;;;;;;;;;;;;;;5005534;28;20387;-36
2022/10/28 14:38:53;;;;;;;;;;;;;;;;;;5005655;28;19924;-36
2022/10/28 14:41:18;;;;;;;;;;;;;;;;;;5004570;28;19929;-36
2022/10/28 14:43:43;;;;;;;;;;;;;;;;;;4995059;28;19917;-36
2022/10/28 14:46:08;;;;;;;;;;;;;;;;;;4993231;28;19924;-36
2022/10/28 14:48:33;;;;;;;;;;;;;;;;;;4996041;28;20361;-36
2022/10/28 14:50:59;;;;;;;;;;;;;;;;;;5004674;28;20305;-36
2022/10/28 14:53:24;;;;;;;;;;;;;;;;;;5004483;28;19979;-36
2022/10/28 14:55:49;;;;;;;;;;;;;;;;;;5001410;28;19928;-35
2022/10/28 14:58:14;;;;;;;;;;;;;;;;;;5001114;28;20001;-36
2022/10/28 15:00:39;;;;;;;;;;;;;;;;;;5001807;28;19917;-36
2022/10/28 15:03:04;;;;;;;;;;;;;;;;;;5004431;28;19952;-36
2022/10/28 15:05:31;;;;;;;;;;;;;;;;;;5006382;28;20299;-36
2022/10/28 15:07:59;;;;;;;;;;;;;;;;;;5007009;28;20387;-36
2022/10/28 15:10:24;;;;;;;;;;;;;;;;;;5006115;28;19920;-36
2022/10/28 15:12:49;;;;;;;;;;;;;;;;;;5006490;28;19914;-36
2022/10/28 15:15:14;;;;;;;;;;;;;;;;;;5005372;28;20028;-36
2022/10/28 15:17:40;;;;;;;;;;;;;;;;;;5009501;28;19922;-36
2022/10/28 15:20:05;;;;;;;;;;;;;;;;;;5007064;28;19953;-36
2022/10/28 15:22:32;;;;;;;;;;;;;;;;;;5006979;28;20012;-36
2022/10/28 15:24:57;;;;;;;;;;;;;;;;;;5010107;28;19951;-36
2022/10/28 15:27:22;;;;;;;;;;;;;;;;;;5006583;28;19948;-36
2022/10/28 15:29:47;;;;;;;;;;;;;;;;;;5008130;28;20088;-36
2022/10/28 15:32:13;;;;;;;;;;;;;;;;;;5007827;28;20441;-35
2022/10/28 15:34:38;;;;;;;;;;;;;;;;;;5009573;28;19921;-36
2022/10/28 15:37:04;;;;;;;;;;;;;;;;;;5007851;28;19941;-36
2022/10/28 15:39:29;;;;;;;;;;;;;;;;;;5009253;28;19914;-35
2022/10/28 15:41:56;;;;;;;;;;;;;;;;;;5009272;28;20468;-35
2022/10/28 15:44:21;;;;;;;;;;;;;;;;;;5007936;28;20436;-36
2022/10/28 15:46:46;;;;;;;;;;;;;;;;;;5009172;28;19921;-36
2022/10/28 15:49:11;;;;;;;;;;;;;;;;;;5002067;28;20362;-36
2022/10/28 15:51:36;;;;;;;;;;;;;;;;;;5008212;28;19921;-35
2022/10/28 15:54:01;;;;;;;;;;;;;;;;;;5005131;28;20018;-36
2022/10/28 15:56:27;;;;;;;;;;;;;;;;;;5006443;28;19949;-36
2022/10/28 15:58:52;;;;;;;;;;;;;;;;;;5003927;28;19917;-35
2022/10/28 16:01:17;;;;;;;;;;;;;;;;;;5005714;28;19921;-35
2022/10/28 16:03:42;;;;;;;;;;;;;;;;;;5008376;28;19924;-36
2022/10/28 16:06:07;;;;;;;;;;;;;;;;;;5005823;28;20439;-35
2022/10/28 16:08:33;;;;;;;;;;;;;;;;;;5005354;28;19921;-36
2022/10/28 16:10:58;;;;;;;;;;;;;;;;;;5003728;28;19963;-35
2022/10/28 16:13:23;;;;;;;;;;;;;;;;;;5009603;28;19939;-35
2022/10/28 16:15:49;;;;;;;;;;;;;;;;;;5005920;28;19952;-35
2022/10/28 16:18:14;;;;;;;;;;;;;;;;;;5004003;28;19921;-36
2022/10/28 16:20:39;;;;;;;;;;;;;;;;;;5003123;28;19977;-35
2022/10/28 16:23:04;;;;;;;;;;;;;;;;;;5007526;28;19914;-35
2022/10/28 16:25:29;;;;;;;;;;;;;;;;;;5007649;28;19917;-36
2022/10/28 16:27:54;;;;;;;;;;;;;;;;;;4996261;28;20062;-36
2022/10/28 16:30:19;;;;;;;;;;;;;;;;;;4998992;28;19929;-35
2022/10/28 16:32:45;;;;;;;;;;;;;;;;;;5002472;28;19999;-36
2022/10/28 16:35:10;;;;;;;;;;;;;;;;;;5001880;28;19969;-36